sensor_id;sensor_type;location;lat;lon;timestamp;noise_LAeq;noise_LA_min;noise_LA_max;noise_LA01;noise_LA95
64545;Laerm;50936;51.660;5.616;2023-05-14T00:01:52;49.77;39.46;65.77;;
64545;Laerm;50936;51.660;5.616;2023-05-14T00:04:19;51.57;39.46;65.59;;
64545;Laerm;50936;51.660;5.616;2023-05-14T00:06:46;48.54;40.03;62.79;;
64545;Laerm;50936;51.660;5.616;2023-05-14T00:09:13;51.38;39.92;66.40;;
64545;Laerm;50936;51.660;5.616;2023-05-14T00:11:40;54.41;39.21;66.69;;
64545;Laerm;50936;51.660;5.616;2023-05-14T00:14:07;46.22;40.43;62.06;;
64545;Laerm;50936;51.660;5.616;2023-05-14T00:16:34;51.64;39.92;74.02;;
64545;Laerm;50936;51.660;5.616;2023-05-14T00:19:00;53.01;39.21;67.86;;
64545;Laerm;50936;51.660;5.616;2023-05-14T00:21:28;54.24;39.21;79.39;;
64545;Laerm;50936;51.660;5.616;2023-05-14T00:23:54;48.38;39.70;62.44;;
64545;Laerm;50936;51.660;5.616;2023-05-14T00:26:21;55.87;40.13;70.19;;
64545;Laerm;50936;51.660;5.616;2023-05-14T00:28:48;51.20;39.34;62.16;;
64545;Laerm;50936;51.660;5.616;2023-05-14T00:31:15;43.24;38.95;55.61;;
64545;Laerm;50936;51.660;5.616;2023-05-14T00:33:42;45.55;38.81;67.36;;
64545;Laerm;50936;51.660;5.616;2023-05-14T00:36:09;51.33;39.34;67.57;;
64545;Laerm;50936;51.660;5.616;2023-05-14T00:38:36;54.82;38.95;68.20;;
64545;Laerm;50936;51.660;5.616;2023-05-14T00:41:03;53.55;39.58;68.20;;
64545;Laerm;50936;51.660;5.616;2023-05-14T00:43:30;53.73;39.92;67.30;;
64545;Laerm;50936;51.660;5.616;2023-05-14T00:45:59;55.69;39.21;71.42;;
64545;Laerm;50936;51.660;5.616;2023-05-14T00:48:27;45.38;38.95;60.95;;
64545;Laerm;50936;51.660;5.616;2023-05-14T00:50:53;50.33;38.67;66.64;;
64545;Laerm;50936;51.660;5.616;2023-05-14T00:53:21;53.44;40.43;68.53;;
64545;Laerm;50936;51.660;5.616;2023-05-14T00:55:49;51.74;38.95;70.68;;
64545;Laerm;50936;51.660;5.616;2023-05-14T00:58:17;47.94;37.70;65.14;;
64545;Laerm;50936;51.660;5.616;2023-05-14T01:00:44;49.01;39.81;63.89;;
64545;Laerm;50936;51.660;5.616;2023-05-14T01:03:31;56.24;39.58;70.46;;
64545;Laerm;50936;51.660;5.616;2023-05-14T01:09:07;45.78;39.46;65.54;;
64545;Laerm;50936;51.660;5.616;2023-05-14T01:14:29;51.74;39.92;64.59;;
64545;Laerm;50936;51.660;5.616;2023-05-14T01:17:03;55.90;40.23;72.82;;
64545;Laerm;50936;51.660;5.616;2023-05-14T01:19:42;62.85;39.21;80.82;;
64545;Laerm;50936;51.660;5.616;2023-05-14T01:22:11;45.39;38.81;60.35;;
64545;Laerm;50936;51.660;5.616;2023-05-14T01:24:39;50.32;39.46;64.40;;
64545;Laerm;50936;51.660;5.616;2023-05-14T01:29:38;51.88;40.53;66.28;;
64545;Laerm;50936;51.660;5.616;2023-05-14T01:32:09;54.23;38.95;71.39;;
64545;Laerm;50936;51.660;5.616;2023-05-14T01:34:38;45.79;37.35;65.46;;
64545;Laerm;50936;51.660;5.616;2023-05-14T01:37:08;53.29;39.58;65.90;;
64545;Laerm;50936;51.660;5.616;2023-05-14T01:39:40;55.16;40.03;67.52;;
64545;Laerm;50936;51.660;5.616;2023-05-14T01:42:09;45.04;38.67;62.13;;
64545;Laerm;50936;51.660;5.616;2023-05-14T01:44:36;53.82;39.81;67.61;;
64545;Laerm;50936;51.660;5.616;2023-05-14T01:47:03;43.58;38.05;51.40;;
64545;Laerm;50936;51.660;5.616;2023-05-14T01:49:30;49.77;38.67;65.20;;
64545;Laerm;50936;51.660;5.616;2023-05-14T01:51:58;51.48;38.81;68.52;;
64545;Laerm;50936;51.660;5.616;2023-05-14T01:54:24;54.07;38.67;71.00;;
64545;Laerm;50936;51.660;5.616;2023-05-14T01:56:51;45.34;38.95;63.04;;
64545;Laerm;50936;51.660;5.616;2023-05-14T01:59:18;43.48;39.58;59.59;;
64545;Laerm;50936;51.660;5.616;2023-05-14T02:01:45;50.66;37.52;67.46;;
64545;Laerm;50936;51.660;5.616;2023-05-14T02:04:12;42.68;38.21;50.40;;
64545;Laerm;50936;51.660;5.616;2023-05-14T02:06:40;43.40;38.67;54.93;;
64545;Laerm;50936;51.660;5.616;2023-05-14T02:09:07;52.84;40.53;68.00;;
64545;Laerm;50936;51.660;5.616;2023-05-14T02:11:34;46.35;39.46;63.22;;
64545;Laerm;50936;51.660;5.616;2023-05-14T02:14:02;46.69;38.37;59.85;;
64545;Laerm;50936;51.660;5.616;2023-05-14T02:16:29;50.46;39.34;67.77;;
64545;Laerm;50936;51.660;5.616;2023-05-14T02:18:56;43.94;38.81;57.41;;
64545;Laerm;50936;51.660;5.616;2023-05-14T02:21:23;52.12;39.81;76.12;;
64545;Laerm;50936;51.660;5.616;2023-05-14T02:23:50;47.00;38.95;58.76;;
64545;Laerm;50936;51.660;5.616;2023-05-14T02:26:17;59.37;40.43;77.52;;
64545;Laerm;50936;51.660;5.616;2023-05-14T02:28:43;44.82;39.46;59.84;;
64545;Laerm;50936;51.660;5.616;2023-05-14T02:31:11;48.27;40.03;64.90;;
64545;Laerm;50936;51.660;5.616;2023-05-14T02:33:38;42.76;39.46;49.70;;
64545;Laerm;50936;51.660;5.616;2023-05-14T02:36:06;42.69;39.70;52.09;;
64545;Laerm;50936;51.660;5.616;2023-05-14T02:38:33;43.73;39.08;55.78;;
64545;Laerm;50936;51.660;5.616;2023-05-14T02:40:59;49.68;39.70;64.39;;
64545;Laerm;50936;51.660;5.616;2023-05-14T02:43:26;42.51;39.34;49.18;;
64545;Laerm;50936;51.660;5.616;2023-05-14T02:45:53;51.14;39.81;67.93;;
64545;Laerm;50936;51.660;5.616;2023-05-14T02:48:20;47.82;40.03;61.05;;
64545;Laerm;50936;51.660;5.616;2023-05-14T02:50:49;50.68;40.89;68.28;;
64545;Laerm;50936;51.660;5.616;2023-05-14T02:53:17;50.56;40.71;66.55;;
64545;Laerm;50936;51.660;5.616;2023-05-14T02:55:44;52.85;40.62;68.34;;
64545;Laerm;50936;51.660;5.616;2023-05-14T02:58:11;50.66;40.80;67.11;;
64545;Laerm;50936;51.660;5.616;2023-05-14T03:00:37;47.59;40.80;59.66;;
64545;Laerm;50936;51.660;5.616;2023-05-14T03:03:05;51.11;41.30;67.20;;
64545;Laerm;50936;51.660;5.616;2023-05-14T03:05:32;43.51;40.98;55.75;;
64545;Laerm;50936;51.660;5.616;2023-05-14T03:07:59;51.14;40.89;73.31;;
64545;Laerm;50936;51.660;5.616;2023-05-14T03:10:26;47.53;40.23;63.79;;
64545;Laerm;50936;51.660;5.616;2023-05-14T03:12:53;51.02;41.46;67.17;;
64545;Laerm;50936;51.660;5.616;2023-05-14T03:15:20;50.72;41.46;65.80;;
64545;Laerm;50936;51.660;5.616;2023-05-14T03:17:48;48.50;40.98;62.30;;
64545;Laerm;50936;51.660;5.616;2023-05-14T03:20:15;49.35;41.30;65.53;;
64545;Laerm;50936;51.660;5.616;2023-05-14T03:22:42;44.47;41.19;54.79;;
64545;Laerm;50936;51.660;5.616;2023-05-14T03:25:09;50.52;40.89;66.00;;
64545;Laerm;50936;51.660;5.616;2023-05-14T03:27:37;52.27;41.89;67.58;;
64545;Laerm;50936;51.660;5.616;2023-05-14T03:30:04;49.63;39.81;66.34;;
64545;Laerm;50936;51.660;5.616;2023-05-14T03:32:31;52.50;40.80;64.52;;
64545;Laerm;50936;51.660;5.616;2023-05-14T03:34:58;50.96;41.38;66.85;;
64545;Laerm;50936;51.660;5.616;2023-05-14T03:37:25;48.46;40.43;61.09;;
64545;Laerm;50936;51.660;5.616;2023-05-14T03:39:52;43.54;40.89;49.79;;
64545;Laerm;50936;51.660;5.616;2023-05-14T03:42:19;55.24;40.43;75.09;;
64545;Laerm;50936;51.660;5.616;2023-05-14T03:44:46;52.28;40.98;67.25;;
64545;Laerm;50936;51.660;5.616;2023-05-14T03:47:13;43.96;40.53;58.41;;
64545;Laerm;50936;51.660;5.616;2023-05-14T03:49:40;50.48;40.33;65.70;;
64545;Laerm;50936;51.660;5.616;2023-05-14T03:52:09;43.72;40.33;56.62;;
64545;Laerm;50936;51.660;5.616;2023-05-14T03:54:36;56.81;40.23;73.82;;
64545;Laerm;50936;51.660;5.616;2023-05-14T03:57:04;48.16;41.30;71.14;;
64545;Laerm;50936;51.660;5.616;2023-05-14T03:59:31;50.04;41.06;65.35;;
64545;Laerm;50936;51.660;5.616;2023-05-14T04:01:57;54.94;41.06;69.71;;
64545;Laerm;50936;51.660;5.616;2023-05-14T04:04:25;46.97;41.22;66.60;;
64545;Laerm;50936;51.660;5.616;2023-05-14T04:06:53;44.34;41.22;55.74;;
64545;Laerm;50936;51.660;5.616;2023-05-14T04:09:20;44.10;41.14;57.37;;
64545;Laerm;50936;51.660;5.616;2023-05-14T04:11:46;50.77;41.14;67.45;;
64545;Laerm;50936;51.660;5.616;2023-05-14T04:14:13;43.27;40.71;55.75;;
64545;Laerm;50936;51.660;5.616;2023-05-14T04:16:41;46.06;41.22;60.51;;
64545;Laerm;50936;51.660;5.616;2023-05-14T04:19:08;45.37;41.06;58.83;;
64545;Laerm;50936;51.660;5.616;2023-05-14T04:21:35;51.00;40.13;66.28;;
64545;Laerm;50936;51.660;5.616;2023-05-14T04:24:02;49.84;40.89;65.00;;
64545;Laerm;50936;51.660;5.616;2023-05-14T04:26:29;45.29;41.53;52.78;;
64545;Laerm;50936;51.660;5.616;2023-05-14T04:28:56;53.11;41.82;66.30;;
64545;Laerm;50936;51.660;5.616;2023-05-14T04:31:23;43.75;40.43;52.86;;
64545;Laerm;50936;51.660;5.616;2023-05-14T04:33:50;44.14;40.43;51.63;;
64545;Laerm;50936;51.660;5.616;2023-05-14T04:36:17;50.97;40.03;67.82;;
64545;Laerm;50936;51.660;5.616;2023-05-14T04:38:44;50.05;39.92;76.17;;
64545;Laerm;50936;51.660;5.616;2023-05-14T04:41:11;49.80;41.38;63.63;;
64545;Laerm;50936;51.660;5.616;2023-05-14T04:43:38;54.31;41.53;67.32;;
64545;Laerm;50936;51.660;5.616;2023-05-14T04:46:05;51.30;40.43;67.08;;
64545;Laerm;50936;51.660;5.616;2023-05-14T04:48:32;52.14;40.71;68.43;;
64545;Laerm;50936;51.660;5.616;2023-05-14T04:50:59;54.93;41.53;67.84;;
64545;Laerm;50936;51.660;5.616;2023-05-14T04:53:26;56.00;41.68;72.31;;
64545;Laerm;50936;51.660;5.616;2023-05-14T04:55:53;48.56;41.30;63.55;;
64545;Laerm;50936;51.660;5.616;2023-05-14T04:58:20;55.01;41.75;68.91;;
64545;Laerm;50936;51.660;5.616;2023-05-14T05:00:49;46.87;41.38;61.28;;
64545;Laerm;50936;51.660;5.616;2023-05-14T05:03:16;48.59;41.53;62.65;;
64545;Laerm;50936;51.660;5.616;2023-05-14T05:05:43;45.80;40.98;61.35;;
64545;Laerm;50936;51.660;5.616;2023-05-14T05:08:10;49.76;39.99;66.39;;
64545;Laerm;50936;51.660;5.616;2023-05-14T05:10:37;56.04;41.61;68.05;;
64545;Laerm;50936;51.660;5.616;2023-05-14T05:13:03;58.23;40.33;74.53;;
64545;Laerm;50936;51.660;5.616;2023-05-14T05:15:30;54.97;40.89;66.46;;
64545;Laerm;50936;51.660;5.616;2023-05-14T05:17:57;53.29;40.89;65.95;;
64545;Laerm;50936;51.660;5.616;2023-05-14T05:20:24;46.27;40.03;62.91;;
64545;Laerm;50936;51.660;5.616;2023-05-14T05:22:51;51.17;40.98;66.79;;
64545;Laerm;50936;51.660;5.616;2023-05-14T05:25:18;43.86;39.46;53.17;;
64545;Laerm;50936;51.660;5.616;2023-05-14T05:27:45;52.02;40.13;65.35;;
64545;Laerm;50936;51.660;5.616;2023-05-14T05:30:12;50.93;39.70;79.39;;
64545;Laerm;50936;51.660;5.616;2023-05-14T05:32:39;51.54;39.81;69.92;;
64545;Laerm;50936;51.660;5.616;2023-05-14T05:35:06;50.65;39.58;65.57;;
64545;Laerm;50936;51.660;5.616;2023-05-14T05:37:33;50.62;40.33;64.74;;
64545;Laerm;50936;51.660;5.616;2023-05-14T05:40:00;49.62;40.03;67.89;;
64545;Laerm;50936;51.660;5.616;2023-05-14T05:42:27;45.93;40.03;57.13;;
64545;Laerm;50936;51.660;5.616;2023-05-14T05:44:54;45.57;40.03;58.56;;
64545;Laerm;50936;51.660;5.616;2023-05-14T05:47:22;49.48;40.33;64.35;;
64545;Laerm;50936;51.660;5.616;2023-05-14T05:49:48;53.96;39.81;72.51;;
64545;Laerm;50936;51.660;5.616;2023-05-14T05:52:15;49.64;41.14;64.31;;
64545;Laerm;50936;51.660;5.616;2023-05-14T05:54:42;52.49;41.22;67.54;;
64545;Laerm;50936;51.660;5.616;2023-05-14T05:57:09;56.93;41.38;71.12;;
64545;Laerm;50936;51.660;5.616;2023-05-14T05:59:36;56.45;40.89;74.82;;
64545;Laerm;50936;51.660;5.616;2023-05-14T06:02:18;50.16;41.14;64.37;;
64545;Laerm;50936;51.660;5.616;2023-05-14T06:04:45;53.37;40.33;67.08;;
64545;Laerm;50936;51.660;5.616;2023-05-14T06:07:12;47.18;40.53;61.79;;
64545;Laerm;50936;51.660;5.616;2023-05-14T06:09:39;54.55;41.82;69.35;;
64545;Laerm;50936;51.660;5.616;2023-05-14T06:12:06;54.49;41.22;71.48;;
64545;Laerm;50936;51.660;5.616;2023-05-14T06:14:33;44.52;39.34;54.31;;
64545;Laerm;50936;51.660;5.616;2023-05-14T06:17:00;56.56;40.33;73.92;;
64545;Laerm;50936;51.660;5.616;2023-05-14T06:19:27;46.94;40.80;59.61;;
64545;Laerm;50936;51.660;5.616;2023-05-14T06:21:54;58.28;42.41;69.90;;
64545;Laerm;50936;51.660;5.616;2023-05-14T06:24:21;52.27;40.43;66.33;;
64545;Laerm;50936;51.660;5.616;2023-05-14T06:26:48;53.64;41.22;71.91;;
64545;Laerm;50936;51.660;5.616;2023-05-14T06:29:15;52.51;41.75;69.07;;
64545;Laerm;50936;51.660;5.616;2023-05-14T06:31:41;56.57;42.22;72.53;;
64545;Laerm;50936;51.660;5.616;2023-05-14T06:34:09;53.44;43.39;67.25;;
64545;Laerm;50936;51.660;5.616;2023-05-14T06:36:36;57.24;44.11;67.12;;
64545;Laerm;50936;51.660;5.616;2023-05-14T06:39:03;59.93;41.53;76.17;;
64545;Laerm;50936;51.660;5.616;2023-05-14T06:41:30;63.48;42.22;86.15;;
64545;Laerm;50936;51.660;5.616;2023-05-14T06:43:56;53.54;40.43;69.08;;
64545;Laerm;50936;51.660;5.616;2023-05-14T06:46:23;59.46;44.51;70.96;;
64545;Laerm;50936;51.660;5.616;2023-05-14T06:48:50;57.33;42.76;68.48;;
64545;Laerm;50936;51.660;5.616;2023-05-14T06:51:17;58.28;41.82;70.40;;
64545;Laerm;50936;51.660;5.616;2023-05-14T06:53:44;61.02;43.29;82.03;;
64545;Laerm;50936;51.660;5.616;2023-05-14T06:56:12;57.28;43.86;67.97;;
64545;Laerm;50936;51.660;5.616;2023-05-14T06:58:40;55.96;43.24;69.07;;
64545;Laerm;50936;51.660;5.616;2023-05-14T07:01:07;59.56;42.03;76.14;;
64545;Laerm;50936;51.660;5.616;2023-05-14T07:03:34;58.55;40.62;70.07;;
64545;Laerm;50936;51.660;5.616;2023-05-14T07:06:01;55.68;42.93;80.83;;
64545;Laerm;50936;51.660;5.616;2023-05-14T07:08:27;59.67;43.90;73.90;;
64545;Laerm;50936;51.660;5.616;2023-05-14T07:10:54;62.39;46.64;82.38;;
64545;Laerm;50936;51.660;5.616;2023-05-14T07:13:23;60.25;44.73;71.16;;
64545;Laerm;50936;51.660;5.616;2023-05-14T07:15:53;58.97;43.86;70.53;;
64545;Laerm;50936;51.660;5.616;2023-05-14T07:18:22;56.53;42.53;68.57;;
64545;Laerm;50936;51.660;5.616;2023-05-14T07:20:49;57.41;43.63;68.94;;
64545;Laerm;50936;51.660;5.616;2023-05-14T07:23:16;62.99;50.54;79.87;;
64545;Laerm;50936;51.660;5.616;2023-05-14T07:25:45;59.46;45.66;79.23;;
64545;Laerm;50936;51.660;5.616;2023-05-14T07:28:12;60.48;47.40;79.33;;
64545;Laerm;50936;51.660;5.616;2023-05-14T07:30:39;59.76;45.01;74.84;;
64545;Laerm;50936;51.660;5.616;2023-05-14T07:33:06;58.48;44.19;72.38;;
64545;Laerm;50936;51.660;5.616;2023-05-14T07:35:33;60.90;47.87;69.81;;
64545;Laerm;50936;51.660;5.616;2023-05-14T07:38:00;58.76;46.45;68.20;;
64545;Laerm;50936;51.660;5.616;2023-05-14T07:40:27;58.66;44.80;69.67;;
64545;Laerm;50936;51.660;5.616;2023-05-14T07:42:53;61.05;45.27;73.37;;
64545;Laerm;50936;51.660;5.616;2023-05-14T07:45:20;60.35;48.07;73.17;;
64545;Laerm;50936;51.660;5.616;2023-05-14T07:47:47;61.37;46.69;83.83;;
64545;Laerm;50936;51.660;5.616;2023-05-14T07:50:18;62.00;51.01;81.34;;
64545;Laerm;50936;51.660;5.616;2023-05-14T07:52:45;60.44;45.80;77.84;;
64545;Laerm;50936;51.660;5.616;2023-05-14T07:55:12;61.84;48.02;80.66;;
64545;Laerm;50936;51.660;5.616;2023-05-14T07:57:39;62.45;49.81;75.31;;
64545;Laerm;50936;51.660;5.616;2023-05-14T08:00:06;63.24;45.75;82.90;;
64545;Laerm;50936;51.660;5.616;2023-05-14T08:02:39;58.93;45.39;68.58;;
64545;Laerm;50936;51.660;5.616;2023-05-14T08:05:07;61.49;50.90;72.63;;
64545;Laerm;50936;51.660;5.616;2023-05-14T08:07:35;60.54;48.67;70.59;;
64545;Laerm;50936;51.660;5.616;2023-05-14T08:10:02;58.73;47.42;66.87;;
64545;Laerm;50936;51.660;5.616;2023-05-14T08:12:29;61.70;49.89;71.91;;
64545;Laerm;50936;51.660;5.616;2023-05-14T08:14:57;60.70;45.04;69.20;;
64545;Laerm;50936;51.660;5.616;2023-05-14T08:17:24;62.46;49.65;73.94;;
64545;Laerm;50936;51.660;5.616;2023-05-14T08:19:51;61.47;48.88;72.08;;
64545;Laerm;50936;51.660;5.616;2023-05-14T08:22:18;62.54;49.97;81.19;;
64545;Laerm;50936;51.660;5.616;2023-05-14T08:24:45;62.55;52.62;72.04;;
64545;Laerm;50936;51.660;5.616;2023-05-14T08:27:12;67.50;49.78;86.78;;
64545;Laerm;50936;51.660;5.616;2023-05-14T08:29:39;61.87;50.54;80.17;;
64545;Laerm;50936;51.660;5.616;2023-05-14T08:32:05;61.27;51.08;74.33;;
64545;Laerm;50936;51.660;5.616;2023-05-14T08:34:48;62.18;49.92;81.22;;
64545;Laerm;50936;51.660;5.616;2023-05-14T08:37:15;61.17;46.15;69.19;;
64545;Laerm;50936;51.660;5.616;2023-05-14T08:39:42;64.12;51.09;75.56;;
64545;Laerm;50936;51.660;5.616;2023-05-14T08:42:11;62.19;49.23;71.40;;
64545;Laerm;50936;51.660;5.616;2023-05-14T08:44:48;62.56;46.64;74.78;;
64545;Laerm;50936;51.660;5.616;2023-05-14T08:47:21;61.47;47.58;70.47;;
64545;Laerm;50936;51.660;5.616;2023-05-14T08:50:07;60.20;48.28;73.72;;
64545;Laerm;50936;51.660;5.616;2023-05-14T08:52:35;61.16;47.79;73.42;;
64545;Laerm;50936;51.660;5.616;2023-05-14T08:55:05;61.73;48.48;79.44;;
64545;Laerm;50936;51.660;5.616;2023-05-14T08:57:33;61.21;51.29;70.15;;
64545;Laerm;50936;51.660;5.616;2023-05-14T09:00:01;60.68;46.18;71.72;;
64545;Laerm;50936;51.660;5.616;2023-05-14T09:02:35;62.12;47.16;74.21;;
64545;Laerm;50936;51.660;5.616;2023-05-14T09:05:02;62.13;50.51;74.65;;
64545;Laerm;50936;51.660;5.616;2023-05-14T09:07:30;64.03;52.04;75.41;;
64545;Laerm;50936;51.660;5.616;2023-05-14T09:09:57;61.62;47.44;75.15;;
64545;Laerm;50936;51.660;5.616;2023-05-14T09:12:24;60.90;45.66;72.16;;
64545;Laerm;50936;51.660;5.616;2023-05-14T09:14:52;61.61;48.00;72.33;;
64545;Laerm;50936;51.660;5.616;2023-05-14T09:17:19;61.71;49.58;81.27;;
64545;Laerm;50936;51.660;5.616;2023-05-14T09:19:46;64.95;50.64;75.34;;
64545;Laerm;50936;51.660;5.616;2023-05-14T09:22:16;62.02;48.02;73.04;;
64545;Laerm;50936;51.660;5.616;2023-05-14T09:24:44;61.22;50.63;71.38;;
64545;Laerm;50936;51.660;5.616;2023-05-14T09:27:18;61.50;48.57;71.69;;
64545;Laerm;50936;51.660;5.616;2023-05-14T09:29:47;61.18;50.20;67.08;;
64545;Laerm;50936;51.660;5.616;2023-05-14T09:32:14;64.00;46.59;85.81;;
64545;Laerm;50936;51.660;5.616;2023-05-14T09:34:41;61.39;49.39;75.38;;
64545;Laerm;50936;51.660;5.616;2023-05-14T09:37:08;62.49;48.34;74.90;;
64545;Laerm;50936;51.660;5.616;2023-05-14T09:39:37;69.60;48.77;89.71;;
64545;Laerm;50936;51.660;5.616;2023-05-14T09:42:04;63.14;48.32;77.44;;
64545;Laerm;50936;51.660;5.616;2023-05-14T09:44:31;60.86;47.84;76.56;;
64545;Laerm;50936;51.660;5.616;2023-05-14T09:46:58;61.23;47.50;77.89;;
64545;Laerm;50936;51.660;5.616;2023-05-14T09:49:25;61.90;49.00;74.89;;
64545;Laerm;50936;51.660;5.616;2023-05-14T09:51:52;62.30;49.80;74.78;;
64545;Laerm;50936;51.660;5.616;2023-05-14T09:54:19;61.16;49.03;80.31;;
64545;Laerm;50936;51.660;5.616;2023-05-14T09:56:46;62.64;50.17;74.42;;
64545;Laerm;50936;51.660;5.616;2023-05-14T09:59:13;63.33;52.84;78.55;;
64545;Laerm;50936;51.660;5.616;2023-05-14T10:01:42;65.40;53.52;81.76;;
64545;Laerm;50936;51.660;5.616;2023-05-14T10:04:11;61.41;48.61;72.00;;
64545;Laerm;50936;51.660;5.616;2023-05-14T10:06:39;63.06;51.19;75.77;;
64545;Laerm;50936;51.660;5.616;2023-05-14T10:09:12;62.13;50.20;75.91;;
64545;Laerm;50936;51.660;5.616;2023-05-14T10:11:43;63.91;52.78;78.55;;
64545;Laerm;50936;51.660;5.616;2023-05-14T10:14:48;63.38;51.24;78.84;;
64545;Laerm;50936;51.660;5.616;2023-05-14T10:17:20;63.21;52.19;77.23;;
64545;Laerm;50936;51.660;5.616;2023-05-14T10:19:55;66.69;49.33;85.55;;
64545;Laerm;50936;51.660;5.616;2023-05-14T10:22:26;62.39;51.44;74.12;;
64545;Laerm;50936;51.660;5.616;2023-05-14T10:24:56;61.62;49.03;78.13;;
64545;Laerm;50936;51.660;5.616;2023-05-14T10:27:23;63.49;52.47;73.85;;
64545;Laerm;50936;51.660;5.616;2023-05-14T10:29:53;62.25;51.15;73.32;;
64545;Laerm;50936;51.660;5.616;2023-05-14T10:32:24;63.24;47.76;74.47;;
64545;Laerm;50936;51.660;5.616;2023-05-14T10:34:52;62.23;51.67;79.23;;
64545;Laerm;50936;51.660;5.616;2023-05-14T10:37:21;61.48;53.27;69.90;;
64545;Laerm;50936;51.660;5.616;2023-05-14T10:39:52;63.24;51.68;77.19;;
64545;Laerm;50936;51.660;5.616;2023-05-14T10:42:33;66.40;50.73;85.38;;
64545;Laerm;50936;51.660;5.616;2023-05-14T10:45:09;65.06;51.68;79.89;;
64545;Laerm;50936;51.660;5.616;2023-05-14T10:47:45;60.88;48.07;77.61;;
64545;Laerm;50936;51.660;5.616;2023-05-14T10:50:15;64.70;54.39;80.05;;
64545;Laerm;50936;51.660;5.616;2023-05-14T10:52:44;62.79;51.03;79.74;;
64545;Laerm;50936;51.660;5.616;2023-05-14T10:55:13;61.53;50.51;70.87;;
64545;Laerm;50936;51.660;5.616;2023-05-14T10:57:43;62.34;48.18;73.34;;
64545;Laerm;50936;51.660;5.616;2023-05-14T11:00:12;62.43;53.54;74.71;;
64545;Laerm;50936;51.660;5.616;2023-05-14T11:02:44;63.18;52.44;71.02;;
64545;Laerm;50936;51.660;5.616;2023-05-14T11:05:15;65.17;47.98;78.35;;
64545;Laerm;50936;51.660;5.616;2023-05-14T11:07:48;65.02;49.43;82.83;;
64545;Laerm;50936;51.660;5.616;2023-05-14T11:10:19;62.14;50.91;71.12;;
64545;Laerm;50936;51.660;5.616;2023-05-14T11:12:49;63.43;52.17;78.99;;
64545;Laerm;50936;51.660;5.616;2023-05-14T11:15:19;64.00;52.17;80.77;;
64545;Laerm;50936;51.660;5.616;2023-05-14T11:17:48;62.26;48.31;69.70;;
64545;Laerm;50936;51.660;5.616;2023-05-14T11:20:17;63.29;49.98;77.68;;
64545;Laerm;50936;51.660;5.616;2023-05-14T11:22:46;64.12;51.21;82.64;;
64545;Laerm;50936;51.660;5.616;2023-05-14T11:25:14;64.92;52.44;81.10;;
64545;Laerm;50936;51.660;5.616;2023-05-14T11:27:45;66.90;46.93;85.57;;
64545;Laerm;50936;51.660;5.616;2023-05-14T11:30:16;64.62;48.18;77.03;;
64545;Laerm;50936;51.660;5.616;2023-05-14T11:32:46;65.00;50.59;86.54;;
64545;Laerm;50936;51.660;5.616;2023-05-14T11:35:14;61.60;52.20;76.95;;
64545;Laerm;50936;51.660;5.616;2023-05-14T11:37:42;64.03;52.92;89.28;;
64545;Laerm;50936;51.660;5.616;2023-05-14T11:40:14;66.65;50.89;84.69;;
64545;Laerm;50936;51.660;5.616;2023-05-14T11:42:44;67.09;53.79;85.90;;
64545;Laerm;50936;51.660;5.616;2023-05-14T11:45:23;61.06;48.71;72.67;;
64545;Laerm;50936;51.660;5.616;2023-05-14T11:47:52;72.34;54.03;95.88;;
64545;Laerm;50936;51.660;5.616;2023-05-14T11:50:21;62.50;49.40;72.44;;
64545;Laerm;50936;51.660;5.616;2023-05-14T11:52:48;64.65;54.12;79.04;;
64545;Laerm;50936;51.660;5.616;2023-05-14T11:55:16;62.67;48.95;74.89;;
64545;Laerm;50936;51.660;5.616;2023-05-14T11:57:43;62.81;50.98;79.98;;
64545;Laerm;50936;51.660;5.616;2023-05-14T12:00:11;61.85;49.80;82.43;;
64545;Laerm;50936;51.660;5.616;2023-05-14T12:02:40;62.34;53.71;70.82;;
64545;Laerm;50936;51.660;5.616;2023-05-14T12:05:07;65.57;52.74;82.53;;
64545;Laerm;50936;51.660;5.616;2023-05-14T12:07:38;63.91;53.11;81.22;;
64545;Laerm;50936;51.660;5.616;2023-05-14T12:10:06;62.37;49.88;76.76;;
64545;Laerm;50936;51.660;5.616;2023-05-14T12:12:35;61.96;52.89;68.35;;
64545;Laerm;50936;51.660;5.616;2023-05-14T12:15:11;63.57;53.38;71.91;;
64545;Laerm;50936;51.660;5.616;2023-05-14T12:17:39;64.51;50.22;79.82;;
64545;Laerm;50936;51.660;5.616;2023-05-14T12:20:10;62.91;51.83;75.81;;
64545;Laerm;50936;51.660;5.616;2023-05-14T12:22:40;58.73;45.39;68.66;;
64545;Laerm;50936;51.660;5.616;2023-05-14T12:25:12;61.40;52.29;78.28;;
64545;Laerm;50936;51.660;5.616;2023-05-14T12:27:42;61.66;50.45;75.53;;
64545;Laerm;50936;51.660;5.616;2023-05-14T12:30:11;65.45;51.93;85.06;;
64545;Laerm;50936;51.660;5.616;2023-05-14T12:32:53;61.68;54.17;75.37;;
64545;Laerm;50936;51.660;5.616;2023-05-14T12:35:20;60.95;50.13;75.72;;
64545;Laerm;50936;51.660;5.616;2023-05-14T12:37:48;64.19;52.38;80.02;;
64545;Laerm;50936;51.660;5.616;2023-05-14T12:40:15;62.47;49.72;75.63;;
64545;Laerm;50936;51.660;5.616;2023-05-14T12:42:42;65.59;52.50;81.17;;
64545;Laerm;50936;51.660;5.616;2023-05-14T12:45:09;62.13;51.10;79.89;;
64545;Laerm;50936;51.660;5.616;2023-05-14T12:47:36;62.78;51.02;72.63;;
64545;Laerm;50936;51.660;5.616;2023-05-14T12:50:04;64.49;54.97;76.79;;
64545;Laerm;50936;51.660;5.616;2023-05-14T12:52:32;66.62;54.69;85.00;;
64545;Laerm;50936;51.660;5.616;2023-05-14T12:55:06;61.69;50.46;72.51;;
64545;Laerm;50936;51.660;5.616;2023-05-14T12:57:35;62.72;50.31;76.01;;
64545;Laerm;50936;51.660;5.616;2023-05-14T13:00:03;65.18;51.22;86.99;;
64545;Laerm;50936;51.660;5.616;2023-05-14T13:02:33;61.81;50.76;71.79;;
64545;Laerm;50936;51.660;5.616;2023-05-14T13:05:12;63.72;48.96;87.88;;
64545;Laerm;50936;51.660;5.616;2023-05-14T13:07:39;59.25;48.36;67.98;;
64545;Laerm;50936;51.660;5.616;2023-05-14T13:10:07;64.52;50.63;77.30;;
64545;Laerm;50936;51.660;5.616;2023-05-14T13:12:34;63.12;45.63;77.92;;
64545;Laerm;50936;51.660;5.616;2023-05-14T13:15:01;65.08;49.92;85.25;;
64545;Laerm;50936;51.660;5.616;2023-05-14T13:17:28;65.02;50.40;86.10;;
64545;Laerm;50936;51.660;5.616;2023-05-14T13:19:55;61.35;48.13;77.31;;
64545;Laerm;50936;51.660;5.616;2023-05-14T13:22:22;63.98;51.13;91.84;;
64545;Laerm;50936;51.660;5.616;2023-05-14T13:24:49;63.81;50.78;89.26;;
64545;Laerm;50936;51.660;5.616;2023-05-14T13:27:16;65.75;51.61;79.02;;
64545;Laerm;50936;51.660;5.616;2023-05-14T13:29:43;61.28;54.65;76.01;;
64545;Laerm;50936;51.660;5.616;2023-05-14T13:32:10;63.90;54.40;74.91;;
64545;Laerm;50936;51.660;5.616;2023-05-14T13:34:37;62.86;51.16;71.54;;
64545;Laerm;50936;51.660;5.616;2023-05-14T13:37:04;63.54;51.35;75.00;;
64545;Laerm;50936;51.660;5.616;2023-05-14T13:39:31;63.90;51.17;82.00;;
64545;Laerm;50936;51.660;5.616;2023-05-14T13:41:57;64.98;53.79;81.09;;
64545;Laerm;50936;51.660;5.616;2023-05-14T13:44:24;63.36;49.19;73.80;;
64545;Laerm;50936;51.660;5.616;2023-05-14T13:46:51;63.13;45.11;71.33;;
64545;Laerm;50936;51.660;5.616;2023-05-14T13:49:18;62.57;46.73;77.07;;
64545;Laerm;50936;51.660;5.616;2023-05-14T13:51:45;63.84;46.43;79.97;;
64545;Laerm;50936;51.660;5.616;2023-05-14T13:54:12;65.06;53.02;79.91;;
64545;Laerm;50936;51.660;5.616;2023-05-14T13:56:39;63.43;50.77;76.36;;
64545;Laerm;50936;51.660;5.616;2023-05-14T13:59:06;63.01;48.99;75.07;;